Time;durP1;ratioP1;P1;durP2;ratioP2;P2;SDS_P1;SDS_P2;PMS_P1;PMS_P2;Temp;Humidity;BMP_temperature;BMP_pressure;BME280_temperature;BME280_humidity;BME280_pressure;Samples;Min_cycle;Max_cycle;Signal;HPM_P1;HPM_P2
2022/12/02 00:01:13;;;;;;;2.25;2.15;;;2.50;99.90;;;;;;5052839;28;20090;-74
2022/12/02 00:03:39;;;;;;;2.40;2.30;;;2.60;99.90;;;;;;5052904;28;20399;-74
2022/12/02 00:06:11;;;;;;;1.58;1.58;;;2.50;99.90;;;;;;5052946;28;20030;-74
2022/12/02 00:08:36;;;;;;;1.98;1.98;;;2.60;99.90;;;;;;5052681;28;20066;-74
2022/12/02 00:11:18;;;;;;;2.45;2.35;;;2.60;99.90;;;;;;5052945;28;20025;-74
2022/12/02 00:13:44;;;;;;;4.25;2.30;;;2.50;99.90;;;;;;5052711;28;20028;-74
2022/12/02 00:16:21;;;;;;;3.08;2.90;;;2.40;99.90;;;;;;5052740;28;20390;-74
2022/12/02 00:18:47;;;;;;;2.40;2.35;;;2.40;99.90;;;;;;5048964;28;20032;-74
2022/12/02 00:21:13;;;;;;;1.48;1.48;;;2.40;99.90;;;;;;5032867;28;20033;-74
2022/12/02 00:23:38;;;;;;;3.28;3.17;;;2.40;99.90;;;;;;5032668;28;20025;-74
2022/12/02 00:26:04;;;;;;;1.70;1.70;;;2.30;99.90;;;;;;5014885;28;20361;-74
2022/12/02 00:28:29;;;;;;;1.40;1.40;;;2.40;99.90;;;;;;5032658;28;20087;-74
2022/12/02 00:30:55;;;;;;;1.98;1.98;;;2.40;99.90;;;;;;5042182;28;20043;-74
2022/12/02 00:33:20;;;;;;;1.90;1.90;;;2.40;99.90;;;;;;5038951;28;20026;-74
2022/12/02 00:35:46;;;;;;;1.75;1.75;;;2.40;99.90;;;;;;5052434;28;20078;-73
2022/12/02 00:38:11;;;;;;;1.80;1.80;;;2.50;99.90;;;;;;5052457;28;20111;-73
2022/12/02 00:40:37;;;;;;;1.88;1.85;;;2.40;99.90;;;;;;5052608;28;20111;-73
2022/12/02 00:48:31;;;;;;;2.33;2.22;;;2.40;99.90;;;;;;5051768;28;20394;-73
2022/12/02 00:50:57;;;;;;;3.10;3.00;;;2.40;99.90;;;;;;5052510;28;20021;-73
2022/12/02 00:53:22;;;;;;;1.58;1.58;;;2.30;99.90;;;;;;5052046;28;20039;-73
2022/12/02 00:55:48;;;;;;;2.03;1.92;;;2.30;99.90;;;;;;5065340;28;20466;-74
2022/12/02 00:58:13;;;;;;;2.15;2.13;;;2.40;99.90;;;;;;5051716;28;20025;-74
2022/12/02 01:00:39;;;;;;;1.92;1.92;;;2.40;99.90;;;;;;5034102;28;20035;-73
2022/12/02 01:03:04;;;;;;;2.60;2.50;;;2.30;99.90;;;;;;5051809;28;20397;-74
2022/12/02 01:05:30;;;;;;;2.38;2.28;;;2.30;99.90;;;;;;5033991;28;20021;-75
2022/12/02 01:07:55;;;;;;;1.67;1.67;;;2.30;99.90;;;;;;5051601;28;20033;-75
2022/12/02 01:10:21;;;;;;;2.20;2.10;;;2.20;99.90;;;;;;5033931;28;20021;-75
2022/12/02 01:12:47;;;;;;;3.78;3.42;;;2.30;99.90;;;;;;5034067;28;20398;-75
2022/12/02 01:15:12;;;;;;;1.67;1.67;;;2.30;99.90;;;;;;5052003;28;20036;-74
2022/12/02 01:17:38;;;;;;;2.13;2.05;;;2.30;99.90;;;;;;5051344;28;20067;-74
2022/12/02 01:20:04;;;;;;;1.65;1.65;;;2.30;99.90;;;;;;5051654;28;20075;-74
2022/12/02 01:22:30;;;;;;;2.20;2.15;;;2.30;99.90;;;;;;5033564;28;20546;-74
2022/12/02 01:24:55;;;;;;;2.40;2.30;;;2.30;99.90;;;;;;5033611;28;20044;-74
2022/12/02 01:27:21;;;;;;;1.40;1.40;;;2.40;99.90;;;;;;5051428;28;20085;-74
2022/12/02 01:29:47;;;;;;;1.98;1.98;;;2.30;99.90;;;;;;5020316;28;20025;-74
2022/12/02 01:32:12;;;;;;;2.88;2.47;;;2.30;99.90;;;;;;5043183;28;20025;-74
2022/12/02 01:34:38;;;;;;;1.90;1.90;;;2.30;99.90;;;;;;5013909;28;20024;-73
2022/12/02 01:37:04;;;;;;;5.88;5.45;;;2.20;99.90;;;;;;5031177;28;20459;-74
2022/12/02 01:39:29;;;;;;;4.50;4.20;;;2.20;99.90;;;;;;5031672;28;20083;-74
2022/12/02 01:41:55;;;;;;;1.90;1.90;;;2.20;99.90;;;;;;5013775;28;20022;-74
2022/12/02 01:44:21;;;;;;;2.05;1.95;;;2.20;99.90;;;;;;5033224;28;20083;-74
2022/12/02 01:46:46;;;;;;;4.00;3.03;;;2.20;99.90;;;;;;5033139;28;20110;-74
2022/12/02 01:49:12;;;;;;;2.67;2.58;;;2.20;99.90;;;;;;5051309;28;20029;-74
2022/12/02 01:51:38;;;;;;;2.80;2.65;;;2.30;99.90;;;;;;5033426;28;20044;-74
2022/12/02 01:54:03;;;;;;;1.80;1.80;;;2.20;99.90;;;;;;5052541;28;20458;-74
2022/12/02 01:56:29;;;;;;;1.40;1.40;;;2.20;99.90;;;;;;5045363;28;20033;-75
2022/12/02 01:58:55;;;;;;;2.47;2.38;;;2.20;99.90;;;;;;5051351;28;20124;-75
2022/12/02 02:01:32;;;;;;;2.67;2.47;;;2.20;99.90;;;;;;5037239;28;20068;-76
2022/12/02 02:04:00;;;;;;;1.60;1.60;;;2.20;99.90;;;;;;5037107;28;20487;-74
2022/12/02 02:06:29;;;;;;;2.28;2.17;;;2.10;99.90;;;;;;5037221;28;20025;-74
2022/12/02 02:08:56;;;;;;;2.10;2.00;;;2.20;99.90;;;;;;5055202;28;20024;-75
2022/12/02 02:11:23;;;;;;;1.40;1.40;;;2.20;99.90;;;;;;5055142;28;20025;-75
2022/12/02 02:13:48;;;;;;;1.88;1.88;;;2.10;99.90;;;;;;5055093;28;20128;-74
2022/12/02 02:16:14;;;;;;;1.83;1.83;;;2.20;99.90;;;;;;5054908;28;20104;-75
2022/12/02 02:18:40;;;;;;;1.73;1.73;;;2.20;99.90;;;;;;5054567;28;20032;-75
2022/12/02 02:21:12;;;;;;;1.75;1.75;;;2.20;99.90;;;;;;5054985;28;20021;-74
2022/12/02 02:23:38;;;;;;;1.70;1.70;;;2.20;99.90;;;;;;5032884;28;20025;-74
2022/12/02 02:26:03;;;;;;;3.00;2.85;;;2.10;99.90;;;;;;5045436;28;20021;-73
2022/12/02 02:28:29;;;;;;;1.85;1.85;;;2.20;99.90;;;;;;5054519;28;20467;-74
2022/12/02 02:30:57;;;;;;;1.80;1.80;;;2.20;99.90;;;;;;5054754;28;20035;-73
2022/12/02 02:33:25;;;;;;;1.50;1.50;;;2.10;99.90;;;;;;5036934;28;20036;-73
2022/12/02 02:35:51;;;;;;;1.45;1.45;;;2.20;99.90;;;;;;5019864;28;20033;-73
2022/12/02 02:38:20;;;;;;;3.80;3.67;;;2.10;99.90;;;;;;5034323;28;20036;-74
2022/12/02 02:40:46;;;;;;;1.67;1.67;;;2.10;99.90;;;;;;5034597;28;20104;-74
2022/12/02 02:43:12;;;;;;;2.58;2.50;;;2.10;99.90;;;;;;5016656;28;20034;-74
2022/12/02 02:45:41;;;;;;;2.38;2.28;;;2.00;99.90;;;;;;5034306;28;20021;-73
2022/12/02 02:48:09;;;;;;;2.50;2.40;;;2.00;99.90;;;;;;5034034;28;20036;-74
2022/12/02 02:50:37;;;;;;;2.28;2.17;;;2.00;99.90;;;;;;5034412;28;20024;-74
2022/12/02 02:53:04;;;;;;;1.80;1.80;;;2.00;99.90;;;;;;5016635;28;20025;-75
2022/12/02 02:55:31;;;;;;;2.08;1.98;;;1.90;99.90;;;;;;5047439;28;20036;-75
2022/12/02 02:58:09;;;;;;;2.25;2.15;;;1.90;99.90;;;;;;5053984;28;20489;-74
2022/12/02 03:00:35;;;;;;;1.70;1.70;;;2.00;99.90;;;;;;5054078;28;20467;-74
2022/12/02 03:03:00;;;;;;;1.50;1.50;;;2.00;99.90;;;;;;5054185;28;20039;-74
2022/12/02 03:05:26;;;;;;;2.78;1.77;;;2.10;99.90;;;;;;5036337;28;20025;-74
2022/12/02 03:07:52;;;;;;;2.53;2.42;;;2.00;99.90;;;;;;5036184;28;20021;-74
2022/12/02 03:10:18;;;;;;;1.90;1.90;;;2.00;99.90;;;;;;5036109;28;20032;-74
2022/12/02 03:12:45;;;;;;;4.95;4.57;;;2.00;99.90;;;;;;5036821;28;20025;-74
2022/12/02 03:15:12;;;;;;;1.63;1.63;;;2.00;99.90;;;;;;5036672;28;20036;-74
2022/12/02 03:17:38;;;;;;;1.55;1.55;;;2.00;99.90;;;;;;5054077;28;20033;-74
2022/12/02 03:20:05;;;;;;;3.40;3.00;;;1.90;99.90;;;;;;5036307;28;20382;-74
2022/12/02 03:22:31;;;;;;;1.55;1.55;;;1.90;99.90;;;;;;5054069;28;20032;-74
2022/12/02 03:24:57;;;;;;;1.60;1.60;;;1.80;99.90;;;;;;5040780;28;20430;-74
2022/12/02 03:27:23;;;;;;;2.22;2.13;;;1.90;99.90;;;;;;5054164;28;20032;-74
2022/12/02 03:29:48;;;;;;;2.22;2.15;;;1.80;99.90;;;;;;5054227;28;20124;-74
2022/12/02 03:32:14;;;;;;;1.83;1.73;;;1.80;99.90;;;;;;5036104;28;20048;-74
2022/12/02 03:34:41;;;;;;;3.75;3.53;;;1.70;99.90;;;;;;5038436;28;20021;-74
2022/12/02 03:37:07;;;;;;;2.40;2.30;;;2.10;99.90;;;;;;5033860;28;20044;-74
2022/12/02 03:39:33;;;;;;;1.50;1.50;;;1.80;99.90;;;;;;5033799;28;20014;-74
2022/12/02 03:41:58;;;;;;;1.45;1.45;;;1.80;99.90;;;;;;5016097;28;20024;-74
2022/12/02 03:44:24;;;;;;;2.92;2.80;;;1.80;99.90;;;;;;5018199;28;20368;-75
2022/12/02 03:46:50;;;;;;;2.88;1.80;;;1.70;99.90;;;;;;5076887;22;20360;-73
2022/12/02 03:49:17;;;;;;;1.30;1.30;;;1.70;99.90;;;;;;5068632;28;20067;-74
2022/12/02 03:51:43;;;;;;;1.90;1.80;;;1.60;99.90;;;;;;5073101;28;20024;-74
2022/12/02 03:54:08;;;;;;;2.17;2.08;;;1.70;99.90;;;;;;5071051;28;20394;-74
2022/12/02 03:56:38;;;;;;;2.42;2.20;;;1.60;99.90;;;;;;5059538;28;20029;-73
2022/12/02 03:59:04;;;;;;;1.67;1.67;;;1.60;99.90;;;;;;5052738;28;20009;-73
2022/12/02 04:01:29;;;;;;;3.40;3.17;;;1.60;99.90;;;;;;5047355;28;20022;-73
2022/12/02 04:03:55;;;;;;;2.20;2.15;;;1.60;99.90;;;;;;5048904;28;20033;-73
2022/12/02 04:06:21;;;;;;;1.90;1.50;;;1.60;99.90;;;;;;5051477;28;20029;-74
2022/12/02 04:08:46;;;;;;;7.30;6.88;;;1.60;99.90;;;;;;5052480;28;20371;-74
2022/12/02 04:11:12;;;;;;;1.80;1.80;;;1.50;99.90;;;;;;5052698;28;20044;-74
2022/12/02 04:13:37;;;;;;;1.50;1.50;;;1.50;99.90;;;;;;5050376;28;20382;-74
2022/12/02 04:16:03;;;;;;;1.67;1.67;;;1.50;99.90;;;;;;5031512;28;20033;-74
2022/12/02 04:18:28;;;;;;;2.15;2.05;;;1.50;99.90;;;;;;5047554;28;20021;-75
2022/12/02 04:20:54;;;;;;;1.75;1.75;;;1.40;99.90;;;;;;5052505;28;20086;-73
2022/12/02 04:23:20;;;;;;;1.90;1.90;;;1.40;99.90;;;;;;5051609;28;20021;-74
2022/12/02 04:25:45;;;;;;;1.77;1.77;;;1.50;99.90;;;;;;5052374;28;20041;-74
2022/12/02 04:28:11;;;;;;;2.58;2.47;;;1.50;99.90;;;;;;5037413;28;20096;-74
2022/12/02 04:30:36;;;;;;;1.70;1.70;;;1.50;99.90;;;;;;5040625;28;20116;-74
2022/12/02 04:33:02;;;;;;;1.60;1.60;;;1.50;99.90;;;;;;5052402;28;20593;-74
2022/12/02 04:35:27;;;;;;;1.70;1.70;;;1.40;99.90;;;;;;5052375;28;20494;-74
2022/12/02 04:37:54;;;;;;;1.60;1.60;;;1.50;99.90;;;;;;5051895;28;20068;-74
2022/12/02 04:40:21;;;;;;;3.25;2.35;;;1.60;99.90;;;;;;5052227;28;20032;-74
2022/12/02 04:42:46;;;;;;;1.50;1.50;;;1.50;99.90;;;;;;5052002;28;20064;-73
2022/12/02 04:45:12;;;;;;;2.30;2.22;;;1.60;99.90;;;;;;5052175;28;20529;-73
2022/12/02 04:47:37;;;;;;;2.60;2.47;;;1.60;99.90;;;;;;5049011;28;20033;-73
2022/12/02 04:50:05;;;;;;;3.65;3.45;;;1.50;99.90;;;;;;5032123;28;20029;-73
2022/12/02 04:52:30;;;;;;;2.45;2.25;;;1.50;99.90;;;;;;5046799;28;20037;-73
2022/12/02 04:54:56;;;;;;;1.80;1.77;;;1.40;99.90;;;;;;5043831;28;20029;-74
2022/12/02 04:57:21;;;;;;;5.43;2.53;;;1.60;99.90;;;;;;5045477;28;20072;-74
2022/12/02 04:59:47;;;;;;;1.92;1.92;;;1.50;99.90;;;;;;5051858;28;20036;-73
2022/12/02 05:02:12;;;;;;;3.35;3.25;;;1.50;99.90;;;;;;5040438;28;20026;-73
2022/12/02 05:04:38;;;;;;;2.35;2.25;;;1.40;99.90;;;;;;5051810;28;20033;-74
2022/12/02 05:07:03;;;;;;;2.03;2.03;;;1.40;99.90;;;;;;5050049;28;20021;-73
2022/12/02 05:09:29;;;;;;;2.35;2.25;;;1.40;99.90;;;;;;5051733;28;20021;-73
2022/12/02 05:11:54;;;;;;;1.95;1.92;;;1.40;99.90;;;;;;5051693;28;20025;-73
2022/12/02 05:14:20;;;;;;;3.40;2.13;;;1.40;99.90;;;;;;5051707;28;20125;-74
2022/12/02 05:16:45;;;;;;;1.92;1.92;;;1.40;99.90;;;;;;5038088;28;20049;-74
2022/12/02 05:19:11;;;;;;;3.13;2.97;;;1.50;99.90;;;;;;5051628;28;20083;-74
2022/12/02 05:21:36;;;;;;;1.80;1.80;;;1.50;99.90;;;;;;5050324;28;20029;-74
2022/12/02 05:24:02;;;;;;;2.10;2.10;;;1.40;99.90;;;;;;5051384;28;20562;-74
2022/12/02 05:26:28;;;;;;;1.80;1.80;;;1.40;99.90;;;;;;5037642;28;20109;-74
2022/12/02 05:28:53;;;;;;;15.27;14.48;;;1.40;99.90;;;;;;5038551;28;20478;-75
2022/12/02 05:31:19;;;;;;;1.83;1.83;;;1.40;99.90;;;;;;5050100;28;20025;-75
2022/12/02 05:33:44;;;;;;;2.22;2.13;;;1.50;99.90;;;;;;5051316;28;20025;-75
2022/12/02 05:36:11;;;;;;;2.00;2.00;;;1.40;99.90;;;;;;5051402;28;20032;-74
2022/12/02 05:38:38;;;;;;;1.88;1.88;;;1.40;99.90;;;;;;5051153;28;20108;-74
2022/12/02 05:41:04;;;;;;;2.00;2.00;;;1.40;99.90;;;;;;5051467;28;20369;-75
2022/12/02 05:43:37;;;;;;;2.83;2.63;;;1.40;99.90;;;;;;5050031;28;20029;-75
2022/12/02 05:46:12;;;;;;;2.60;2.50;;;1.40;99.90;;;;;;5050069;28;20017;-75
2022/12/02 05:48:38;;;;;;;2.70;2.60;;;1.30;99.90;;;;;;5051110;28;20036;-75
2022/12/02 05:51:26;;;;;;;5.40;3.35;;;1.30;99.90;;;;;;5049890;28;20263;-74
2022/12/02 05:53:51;;;;;;;2.05;2.05;;;1.30;99.90;;;;;;5051070;28;20127;-75
2022/12/02 05:56:25;;;;;;;2.38;2.28;;;1.30;99.90;;;;;;5037796;28;20076;-74
2022/12/02 05:58:52;;;;;;;2.20;2.10;;;1.30;99.90;;;;;;5051425;28;20033;-74
2022/12/02 06:01:19;;;;;;;2.50;2.40;;;1.30;99.90;;;;;;5043706;28;20507;-74
2022/12/02 06:03:45;;;;;;;2.35;2.25;;;1.30;99.90;;;;;;5031745;28;20080;-75
2022/12/02 06:06:11;;;;;;;2.40;2.30;;;1.30;99.90;;;;;;5051188;28;20494;-74
2022/12/02 06:08:36;;;;;;;3.53;3.25;;;1.40;99.90;;;;;;5048732;28;20021;-75
2022/12/02 06:11:13;;;;;;;5.53;5.22;;;1.40;99.90;;;;;;5038562;28;20036;-75
2022/12/02 06:13:38;;;;;;;2.30;2.20;;;1.30;99.90;;;;;;5049787;28;20115;-75
2022/12/02 06:16:06;;;;;;;2.40;2.30;;;1.30;99.90;;;;;;5040825;28;20213;-75
2022/12/02 06:18:34;;;;;;;3.85;3.65;;;1.30;99.90;;;;;;5031228;28;20099;-75
2022/12/02 06:21:02;;;;;;;2.55;2.45;;;1.20;99.90;;;;;;5031280;28;20030;-75
2022/12/02 06:23:30;;;;;;;3.00;2.90;;;1.30;99.90;;;;;;5048264;28;20108;-75
2022/12/02 06:25:57;;;;;;;1.90;1.90;;;1.30;99.90;;;;;;5041123;28;20022;-75
2022/12/02 06:28:36;;;;;;;3.45;3.35;;;1.30;99.90;;;;;;5029807;28;20044;-75
2022/12/02 06:31:15;;;;;;;2.30;2.22;;;1.10;99.90;;;;;;5031196;28;20028;-75
2022/12/02 06:33:42;;;;;;;3.50;3.25;;;1.20;99.90;;;;;;5031126;28;20510;-75
2022/12/02 06:36:16;;;;;;;2.42;2.33;;;1.20;99.90;;;;;;5044300;28;20116;-74
2022/12/02 06:38:58;;;;;;;2.40;2.30;;;1.20;99.90;;;;;;5039053;28;20490;-75
2022/12/02 06:41:27;;;;;;;1.83;1.83;;;1.30;99.90;;;;;;5033996;28;20030;-75
2022/12/02 06:46:43;;;;;;;2.60;2.50;;;1.20;99.90;;;;;;5028592;28;20098;-75
2022/12/02 06:49:20;;;;;;;1.75;1.75;;;1.30;99.90;;;;;;5046579;28;20478;-74
2022/12/02 06:51:54;;;;;;;2.00;2.00;;;1.40;99.90;;;;;;5034461;28;20084;-74
2022/12/02 06:54:22;;;;;;;2.92;2.83;;;1.20;99.90;;;;;;5033164;28;20060;-74
2022/12/02 06:56:49;;;;;;;3.70;3.50;;;1.20;99.90;;;;;;5044706;28;20021;-75
2022/12/02 06:59:19;;;;;;;2.25;2.15;;;1.30;99.90;;;;;;5049320;28;20025;-74
2022/12/02 07:01:45;;;;;;;2.30;2.20;;;1.30;99.90;;;;;;5045878;28;20060;-74
2022/12/02 07:04:34;;;;;;;2.83;2.72;;;1.20;99.90;;;;;;5036605;28;20041;-74
2022/12/02 07:07:20;;;;;;;2.15;2.08;;;1.20;99.90;;;;;;5048139;28;20055;-75
2022/12/02 07:09:55;;;;;;;2.28;2.22;;;1.20;99.90;;;;;;5052817;28;20027;-75
2022/12/02 07:12:24;;;;;;;5.18;3.97;;;1.30;99.90;;;;;;5049617;28;20026;-75
2022/12/02 07:15:28;;;;;;;2.10;2.10;;;1.30;99.90;;;;;;5032892;28;20113;-75
2022/12/02 07:18:00;;;;;;;2.22;2.13;;;1.30;99.90;;;;;;5037802;28;20024;-74
2022/12/02 07:20:32;;;;;;;3.55;3.40;;;1.30;99.90;;;;;;5044057;28;20025;-74
2022/12/02 07:23:21;;;;;;;2.35;2.25;;;1.30;99.90;;;;;;5043643;28;20141;-76
2022/12/02 07:25:50;;;;;;;2.15;2.05;;;1.30;99.90;;;;;;5052987;28;20593;-75
2022/12/02 07:28:34;;;;;;;2.05;1.95;;;1.30;99.90;;;;;;5052610;28;20021;-74
2022/12/02 07:31:20;;;;;;;3.00;2.90;;;1.30;99.90;;;;;;5052926;28;20098;-75
2022/12/02 07:33:46;;;;;;;1.90;1.90;;;1.20;99.90;;;;;;5051877;28;20076;-75
2022/12/02 07:36:12;;;;;;;3.53;3.33;;;1.30;99.90;;;;;;5053406;28;20041;-73
2022/12/02 07:38:37;;;;;;;2.10;2.10;;;1.30;99.90;;;;;;5053087;28;20098;-74
2022/12/02 07:41:04;;;;;;;4.75;3.22;;;1.30;99.90;;;;;;5053436;28;20436;-74
2022/12/02 07:43:30;;;;;;;3.75;3.55;;;1.30;99.90;;;;;;5053349;28;20025;-74
2022/12/02 07:45:56;;;;;;;2.50;2.40;;;1.20;99.90;;;;;;5053234;28;20021;-74
2022/12/02 07:48:21;;;;;;;3.70;3.50;;;1.30;99.90;;;;;;5052862;28;20498;-74
2022/12/02 07:50:47;;;;;;;2.88;2.78;;;1.20;99.90;;;;;;5053193;28;20021;-74
2022/12/02 07:53:13;;;;;;;2.00;2.00;;;1.20;99.90;;;;;;5051834;28;20036;-74
2022/12/02 07:55:38;;;;;;;2.70;2.60;;;1.20;99.90;;;;;;5039671;28;20103;-74
2022/12/02 07:58:04;;;;;;;2.55;2.45;;;1.20;99.90;;;;;;5050303;28;20052;-74
2022/12/02 08:00:30;;;;;;;1.98;1.98;;;1.30;99.90;;;;;;5046991;28;20060;-75
2022/12/02 08:02:55;;;;;;;3.15;3.05;;;1.30;99.90;;;;;;5043796;28;20088;-74
2022/12/02 08:05:22;;;;;;;4.80;4.07;;;1.30;99.90;;;;;;5046702;28;20028;-74
2022/12/02 08:07:48;;;;;;;3.72;3.53;;;1.30;99.90;;;;;;5036366;28;20437;-74
2022/12/02 08:10:13;;;;;;;2.75;2.63;;;1.30;99.90;;;;;;5052912;28;20017;-74
2022/12/02 08:12:39;;;;;;;2.63;2.53;;;1.30;99.90;;;;;;5048719;28;20033;-74
2022/12/02 08:15:09;;;;;;;1.92;1.88;;;1.30;99.90;;;;;;5044276;28;20052;-74
2022/12/02 08:17:35;;;;;;;3.83;3.65;;;1.30;99.90;;;;;;5048027;28;20025;-74
2022/12/02 08:20:01;;;;;;;3.60;3.28;;;1.30;99.90;;;;;;5052838;28;20587;-75
2022/12/02 08:22:27;;;;;;;2.40;2.30;;;1.30;99.90;;;;;;5051327;28;20045;-74
2022/12/02 08:24:54;;;;;;;2.45;2.25;;;1.30;99.90;;;;;;5052549;28;20064;-74
2022/12/02 08:27:21;;;;;;;4.43;4.18;;;1.30;99.90;;;;;;5050972;28;20112;-74
2022/12/02 08:29:48;;;;;;;1.90;1.90;;;1.30;99.90;;;;;;5038772;28;20033;-77
2022/12/02 08:32:17;;;;;;;1.83;1.83;;;1.30;99.90;;;;;;5044841;28;20494;-75
2022/12/02 08:34:43;;;;;;;4.55;4.15;;;1.40;99.90;;;;;;5044554;28;20490;-74
2022/12/02 08:37:09;;;;;;;5.93;3.10;;;1.30;99.90;;;;;;5040448;28;20055;-74
2022/12/02 08:39:35;;;;;;;2.45;2.35;;;1.30;99.90;;;;;;5038984;28;20113;-74
2022/12/02 08:42:01;;;;;;;2.03;2.03;;;1.30;99.90;;;;;;5042589;28;20493;-75
2022/12/02 08:44:27;;;;;;;1.98;1.98;;;1.30;99.90;;;;;;5047220;28;20531;-75
2022/12/02 08:46:52;;;;;;;1.75;1.73;;;1.30;99.90;;;;;;5043761;28;20395;-74
2022/12/02 08:49:18;;;;;;;2.47;2.38;;;1.30;99.90;;;;;;5033699;28;20395;-74
2022/12/02 08:51:44;;;;;;;1.88;1.88;;;1.40;99.90;;;;;;5051697;28;20029;-74
2022/12/02 08:54:10;;;;;;;2.65;2.55;;;1.40;99.90;;;;;;5043893;28;20026;-74
2022/12/02 08:56:35;;;;;;;1.92;1.92;;;1.40;99.90;;;;;;5048749;28;20032;-74
2022/12/02 08:59:02;;;;;;;1.60;1.60;;;1.40;99.90;;;;;;5046166;28;20103;-74
2022/12/02 09:01:27;;;;;;;2.30;2.20;;;1.40;99.90;;;;;;5035463;28;20021;-74
2022/12/02 09:03:53;;;;;;;4.90;4.70;;;1.40;99.90;;;;;;5045917;28;20505;-74
2022/12/02 09:06:18;;;;;;;2.80;2.70;;;1.40;99.90;;;;;;5051713;28;20032;-74
2022/12/02 09:08:44;;;;;;;1.95;1.90;;;1.40;99.90;;;;;;5051055;28;20035;-74
2022/12/02 09:11:10;;;;;;;1.92;1.92;;;1.40;99.90;;;;;;5052065;28;20024;-74
2022/12/02 09:13:35;;;;;;;1.80;1.80;;;1.50;99.90;;;;;;5051677;28;20051;-75
2022/12/02 09:16:01;;;;;;;2.75;2.65;;;1.50;99.90;;;;;;5050312;28;20083;-74
2022/12/02 09:18:26;;;;;;;1.70;1.70;;;1.50;99.90;;;;;;5038062;28;20364;-74
2022/12/02 09:20:52;;;;;;;2.17;2.13;;;1.40;99.90;;;;;;5050204;28;20083;-74
2022/12/02 09:23:17;;;;;;;1.83;1.83;;;1.50;99.90;;;;;;5051416;28;20043;-74
2022/12/02 09:25:43;;;;;;;2.58;2.42;;;1.50;99.90;;;;;;5050460;28;20029;-75
2022/12/02 09:28:08;;;;;;;2.30;2.20;;;1.50;99.90;;;;;;5051232;28;20033;-74
2022/12/02 09:30:34;;;;;;;3.53;3.42;;;1.50;99.90;;;;;;5042673;28;20030;-74
2022/12/02 09:32:59;;;;;;;2.33;2.22;;;1.40;99.90;;;;;;5031650;28;20079;-74
2022/12/02 09:35:25;;;;;;;2.15;2.03;;;1.40;99.90;;;;;;5030144;28;20022;-74
2022/12/02 09:37:50;;;;;;;3.10;2.97;;;1.40;99.90;;;;;;5039176;28;20025;-74
2022/12/02 09:40:16;;;;;;;1.95;1.85;;;1.40;99.90;;;;;;5030501;28;20027;-74
2022/12/02 09:42:43;;;;;;;2.40;2.33;;;1.40;99.90;;;;;;5047770;28;20048;-74
2022/12/02 09:45:10;;;;;;;4.38;4.20;;;1.50;99.90;;;;;;5037955;28;20017;-75
2022/12/02 09:47:36;;;;;;;3.08;2.78;;;1.50;99.90;;;;;;5047277;28;20033;-74
2022/12/02 09:50:01;;;;;;;1.67;1.67;;;1.50;99.90;;;;;;5043493;28;20097;-73
2022/12/02 09:52:28;;;;;;;3.30;2.45;;;1.50;99.90;;;;;;5032302;28;20022;-74
2022/12/02 09:54:58;;;;;;;1.70;1.70;;;1.60;99.90;;;;;;5041652;28;20029;-74
2022/12/02 09:57:30;;;;;;;4.70;4.50;;;1.60;99.90;;;;;;5047871;28;20029;-74
2022/12/02 10:00:02;;;;;;;3.13;2.92;;;1.70;99.90;;;;;;5051378;28;20013;-74
2022/12/02 10:02:39;;;;;;;2.72;2.63;;;1.70;99.90;;;;;;5050964;28;20029;-74
2022/12/02 10:05:27;;;;;;;2.38;2.28;;;1.80;99.90;;;;;;5038920;28;20038;-74
2022/12/02 10:07:55;;;;;;;1.73;1.73;;;1.70;99.90;;;;;;5019842;28;20064;-74
2022/12/02 10:10:24;;;;;;;3.75;3.50;;;1.70;99.90;;;;;;5033294;28;20026;-74
2022/12/02 10:12:51;;;;;;;4.28;3.88;;;1.80;99.90;;;;;;5039991;28;20053;-74
2022/12/02 10:15:21;;;;;;;4.22;3.85;;;1.70;99.90;;;;;;5046345;28;20044;-74
2022/12/02 10:17:47;;;;;;;2.80;2.70;;;1.60;99.90;;;;;;5030140;28;20106;-74
2022/12/02 10:20:26;;;;;;;2.25;2.15;;;1.60;99.90;;;;;;5048237;28;20096;-74
2022/12/02 10:23:10;;;;;;;3.05;2.95;;;1.60;99.90;;;;;;5054873;28;20033;-73
2022/12/02 10:25:36;;;;;;;4.30;3.45;;;1.50;99.90;;;;;;5053406;28;20071;-74
2022/12/02 10:28:03;;;;;;;1.90;1.90;;;1.50;99.90;;;;;;5052708;28;20032;-74
2022/12/02 10:30:29;;;;;;;4.15;3.95;;;1.50;99.90;;;;;;5054462;28;20025;-74
2022/12/02 10:33:02;;;;;;;1.95;1.85;;;1.40;99.90;;;;;;5040420;28;20092;-73
2022/12/02 10:35:49;;;;;;;4.55;4.35;;;1.30;99.90;;;;;;5043009;28;20433;-74
2022/12/02 10:38:41;;;;;;;2.20;2.10;;;1.30;99.90;;;;;;5053791;28;20025;-74
2022/12/02 10:41:14;;;;;;;3.08;2.80;;;1.20;99.90;;;;;;5053213;28;20031;-74
2022/12/02 10:43:42;;;;;;;2.75;2.55;;;1.20;99.90;;;;;;5045183;28;20479;-73
2022/12/02 10:46:13;;;;;;;2.58;2.42;;;1.20;99.90;;;;;;5049172;28;20060;-74
2022/12/02 10:48:39;;;;;;;7.72;7.07;;;1.30;99.90;;;;;;5052238;28;20558;-74
2022/12/02 10:51:04;;;;;;;5.40;4.40;;;1.20;99.90;;;;;;5040947;28;20063;-73
2022/12/02 10:53:31;;;;;;;3.17;1.98;;;1.20;99.90;;;;;;5044676;28;20061;-74
2022/12/02 10:55:57;;;;;;;1.63;1.63;;;1.20;99.90;;;;;;5036804;28;20091;-74
2022/12/02 10:58:29;;;;;;;3.03;2.92;;;1.30;99.90;;;;;;5043199;28;20033;-74
2022/12/02 11:01:00;;;;;;;4.60;4.00;;;1.30;99.90;;;;;;5047649;28;20033;-74
2022/12/02 11:03:25;;;;;;;2.70;2.50;;;1.20;99.90;;;;;;5049026;28;20021;-74
2022/12/02 11:05:52;;;;;;;1.75;1.75;;;1.20;99.90;;;;;;5044026;28;20463;-74
2022/12/02 11:08:26;;;;;;;7.53;3.65;;;1.20;99.90;;;;;;5041949;28;20025;-75
2022/12/02 11:11:14;;;;;;;3.50;3.25;;;1.30;99.90;;;;;;5047504;28;20025;-74
2022/12/02 11:13:55;;;;;;;4.45;4.18;;;1.30;99.90;;;;;;5046220;28;20123;-75
2022/12/02 11:16:27;;;;;;;1.70;1.70;;;1.30;99.90;;;;;;5043461;28;20144;-74
2022/12/02 11:19:34;;;;;;;2.20;2.13;;;1.30;99.90;;;;;;5039227;28;20021;-74
2022/12/02 11:22:00;;;;;;;2.45;2.35;;;1.20;99.90;;;;;;5039234;28;20021;-74
2022/12/02 11:24:25;;;;;;;2.92;2.83;;;1.20;99.90;;;;;;5042223;28;20040;-74
2022/12/02 11:27:03;;;;;;;2.00;2.00;;;1.30;99.90;;;;;;5046428;28;20025;-74
2022/12/02 11:29:31;;;;;;;1.75;1.75;;;1.30;99.90;;;;;;5045489;28;20025;-74
2022/12/02 11:32:01;;;;;;;2.90;2.80;;;1.30;99.90;;;;;;5039759;28;20017;-74
2022/12/02 11:34:45;;;;;;;2.67;2.58;;;1.30;99.90;;;;;;5041333;28;20033;-74
2022/12/02 11:37:28;;;;;;;1.70;1.70;;;1.30;99.90;;;;;;5013246;28;20034;-74
2022/12/02 11:40:00;;;;;;;4.63;3.90;;;1.30;99.90;;;;;;5034365;28;20055;-74
2022/12/02 11:42:25;;;;;;;6.28;5.97;;;1.20;99.90;;;;;;5042012;28;20030;-73
2022/12/02 11:44:52;;;;;;;1.90;1.90;;;1.20;99.90;;;;;;5046880;28;20392;-74
2022/12/02 11:47:30;;;;;;;3.05;2.53;;;1.30;99.90;;;;;;5043526;28;20029;-74
2022/12/02 11:50:09;;;;;;;7.30;6.63;;;1.30;99.90;;;;;;5040316;28;20057;-74
2022/12/02 11:52:38;;;;;;;4.40;4.20;;;1.30;99.90;;;;;;5037024;28;20060;-74
2022/12/02 11:55:17;;;;;;;3.08;2.88;;;1.30;99.90;;;;;;5051552;28;20020;-74
2022/12/02 11:57:50;;;;;;;3.20;3.10;;;1.30;99.90;;;;;;5038305;28;20024;-74
2022/12/02 12:00:34;;;;;;;4.05;3.75;;;1.30;99.90;;;;;;5040958;28;20040;-73
2022/12/02 12:03:11;;;;;;;2.95;2.75;;;1.10;99.90;;;;;;5012163;28;20443;-74
2022/12/02 12:05:37;;;;;;;2.80;2.70;;;1.30;99.90;;;;;;5031122;28;20609;-73
2022/12/02 12:08:02;;;;;;;4.10;3.38;;;1.30;99.90;;;;;;5043309;28;20056;-74
2022/12/02 12:10:29;;;;;;;2.42;2.33;;;1.40;99.90;;;;;;5046553;28;20100;-74
2022/12/02 12:13:18;;;;;;;2.30;2.20;;;1.40;99.90;;;;;;5042773;28;20020;-74
2022/12/02 12:15:49;;;;;;;2.22;2.13;;;1.40;99.90;;;;;;5051354;28;20478;-74
2022/12/02 12:18:34;;;;;;;4.10;3.90;;;1.50;99.90;;;;;;5052489;28;20390;-74
2022/12/02 12:21:00;;;;;;;5.40;5.17;;;1.50;99.90;;;;;;5052763;28;20559;-74
2022/12/02 12:23:29;;;;;;;3.90;3.65;;;1.50;99.90;;;;;;5051316;28;20060;-73
2022/12/02 12:25:55;;;;;;;3.60;3.22;;;1.50;99.90;;;;;;5053045;28;20025;-74
2022/12/02 12:28:30;;;;;;;3.88;3.65;;;1.50;99.90;;;;;;5052221;28;20029;-74
2022/12/02 12:30:56;;;;;;;2.80;2.70;;;1.60;99.90;;;;;;5051237;28;20025;-75
2022/12/02 12:33:22;;;;;;;4.28;3.97;;;1.50;99.90;;;;;;5051080;28;20060;-73
2022/12/02 12:35:48;;;;;;;7.22;3.88;;;1.50;99.90;;;;;;5052374;28;20114;-74
2022/12/02 12:38:14;;;;;;;4.70;4.40;;;1.40;99.90;;;;;;5051680;28;20064;-74
2022/12/02 12:40:39;;;;;;;4.05;3.75;;;1.50;99.90;;;;;;5052268;28;20037;-74
2022/12/02 12:43:05;;;;;;;3.80;3.60;;;1.40;99.90;;;;;;5050099;28;20071;-76
2022/12/02 12:45:30;;;;;;;2.75;2.65;;;1.50;99.90;;;;;;5050964;28;20033;-74
2022/12/02 12:47:56;;;;;;;3.60;3.50;;;1.60;99.90;;;;;;5051811;28;20036;-73
2022/12/02 12:50:21;;;;;;;4.00;3.90;;;1.50;99.90;;;;;;5041765;28;20032;-74
2022/12/02 12:52:47;;;;;;;4.32;4.10;;;1.50;99.90;;;;;;5048842;28;20029;-74
2022/12/02 12:55:13;;;;;;;2.53;2.42;;;1.50;99.90;;;;;;5039856;28;20030;-73
2022/12/02 12:57:38;;;;;;;3.28;3.17;;;1.60;99.90;;;;;;5029941;28;20027;-73
2022/12/02 13:00:04;;;;;;;3.05;2.95;;;1.60;99.90;;;;;;5035068;28;20387;-73
2022/12/02 13:02:30;;;;;;;3.17;3.08;;;1.60;99.90;;;;;;5031386;28;20021;-73
2022/12/02 13:04:55;;;;;;;4.07;3.78;;;1.60;99.90;;;;;;5029681;28;20699;-73
2022/12/02 13:07:21;;;;;;;3.40;3.30;;;1.60;99.90;;;;;;5034342;28;20028;-73
2022/12/02 13:09:46;;;;;;;3.22;3.13;;;1.60;99.90;;;;;;5031297;28;20360;-73
2022/12/02 13:12:16;;;;;;;7.20;6.78;;;1.50;99.90;;;;;;5033352;28;20053;-73